Time;durP1;ratioP1;P1;durP2;ratioP2;P2;SDS_P1;SDS_P2;PMS_P1;PMS_P2;Temp;Humidity;BMP_temperature;BMP_pressure;BME280_temperature;BME280_humidity;BME280_pressure;Samples;Min_cycle;Max_cycle;Signal;HPM_P1;HPM_P2
2022/08/07 07:50:48;;;;;;;13.20;7.32;;;;;;;15.75;87.06;101967.16;6264374;22;20069;-79
2022/08/07 08:39:55;;;;;;;12.27;9.90;;;;;;;13.56;100.00;101725.72;6312294;22;20868;-80
2022/08/07 08:42:50;;;;;;;17.10;11.38;;;;;;;14.44;100.00;101939.97;6361296;22;20017;-82
2022/08/07 08:45:40;;;;;;;23.38;12.75;;;;;;;15.50;100.00;102143.19;6239812;22;20012;-80
2022/08/07 08:48:37;;;;;;;17.70;11.68;;;;;;;15.25;100.00;102148.22;6324428;22;20041;-80
2022/08/07 08:51:22;;;;;;;18.23;10.77;;;;;;;15.17;100.00;102140.25;6311373;22;20097;-80
2022/08/07 08:54:07;;;;;;;16.42;11.60;;;;;;;15.16;100.00;102142.09;6333013;22;20018;-80
2022/08/07 08:56:54;;;;;;;16.33;11.68;;;;;;;15.00;100.00;102101.75;6339301;22;20003;-80
2022/08/07 08:59:34;;;;;;;12.95;11.25;;;;;;;15.25;100.00;102131.94;6339193;22;20006;-80
2022/08/07 09:02:03;;;;;;;19.08;13.43;;;;;;;15.40;100.00;102131.84;6313674;22;20093;-79
2022/08/07 09:04:41;;;;;;;19.48;13.00;;;;;;;15.57;100.00;102119.63;6327401;22;20038;-79
2022/08/07 09:07:23;;;;;;;18.13;13.85;;;;;;;15.45;100.00;102065.09;6324171;22;19995;-80
2022/08/07 09:10:15;;;;;;;21.48;13.95;;;;;;;16.02;100.00;102120.06;6342854;22;19995;-79
2022/08/07 09:13:09;;;;;;;18.73;13.27;;;;;;;16.37;100.00;102118.09;6313911;22;20300;-81
2022/08/07 09:15:57;;;;;;;21.30;13.35;;;;;;;16.64;100.00;102104.56;6293030;22;20424;-82
2022/08/07 09:18:59;;;;;;;17.23;14.18;;;;;;;16.84;100.00;102055.66;6315707;22;20487;-81
2022/08/07 09:21:30;;;;;;;19.75;12.90;;;;;;;17.44;100.00;102124.41;6317518;22;20336;-81
2022/08/07 09:24:00;;;;;;;16.00;11.80;;;;;;;17.45;100.00;102117.06;6322411;22;20404;-81
2022/08/07 09:26:49;;;;;;;15.27;12.48;;;;;;;17.38;100.00;102117.09;6343190;22;20343;-81
2022/08/07 09:29:41;;;;;;;16.90;12.18;;;;;;;17.40;100.00;102114.16;6340816;22;20097;-80
2022/08/07 09:32:34;;;;;;;17.60;12.80;;;;;;;17.41;100.00;102113.13;6313401;22;20025;-80
2022/08/07 09:35:21;;;;;;;13.65;11.00;;;;;;;17.16;100.00;102115.69;6340355;22;20003;-80
2022/08/07 09:37:56;;;;;;;13.55;11.20;;;;;;;17.08;100.00;102111.28;6338466;22;20006;-80
2022/08/07 09:40:31;;;;;;;16.17;11.73;;;;;;;17.08;100.00;102105.84;6313564;22;20033;-80
2022/08/07 09:43:22;;;;;;;17.13;12.60;;;;;;;17.18;100.00;102106.25;6315683;22;20033;-80
2022/08/07 09:46:22;;;;;;;16.48;12.40;;;;;;;17.55;100.00;102112.06;6351155;22;20069;-79
2022/08/07 09:49:14;;;;;;;19.33;12.10;;;;;;;17.62;100.00;102088.38;6345434;22;20045;-79
2022/08/07 09:52:13;;;;;;;15.82;11.60;;;;;;;18.04;100.00;102110.63;6341447;22;19999;-79
2022/08/07 09:54:53;;;;;;;12.30;11.20;;;;;;;18.04;100.00;102111.44;6340187;22;20101;-79
2022/08/07 09:57:54;;;;;;;13.05;10.82;;;;;;;18.05;98.80;102101.41;6340596;22;19999;-79
2022/08/07 10:00:23;;;;;;;11.52;9.80;;;;;;;17.90;95.43;102039.06;6312408;22;20025;-79
2022/08/07 10:03:14;;;;;;;13.15;9.60;;;;;;;18.55;93.79;102101.53;6340736;22;20007;-79
2022/08/07 10:05:54;;;;;;;14.15;10.65;;;;;;;18.57;90.89;102106.75;6339438;22;20010;-79
2022/08/07 10:08:47;;;;;;;11.57;10.38;;;;;;;18.62;90.56;102096.03;6340735;22;20001;-79
2022/08/07 10:11:35;;;;;;;12.60;11.30;;;;;;;18.47;92.08;102107.22;6309972;22;20022;-78
2022/08/07 10:14:23;;;;;;;14.75;10.90;;;;;;;18.29;91.14;102092.47;6338465;22;20002;-78
2022/08/07 10:17:10;;;;;;;12.43;11.15;;;;;;;18.33;93.06;102094.75;6309592;22;19999;-79
2022/08/07 10:19:54;;;;;;;14.52;11.00;;;;;;;18.50;92.37;102087.72;6338081;22;20596;-79
2022/08/07 10:22:43;;;;;;;12.52;11.02;;;;;;;18.72;91.48;102093.66;6338405;22;20077;-79
2022/08/07 10:25:46;;;;;;;14.20;10.93;;;;;;;18.68;91.36;102086.97;6337945;22;19999;-79
2022/08/07 10:29:09;;;;;;;15.32;12.50;;;;;;;18.87;93.16;102088.69;6339544;22;20002;-79
2022/08/07 10:32:17;;;;;;;13.02;11.15;;;;;;;18.66;92.10;102061.81;6245200;23;20099;-79
2022/08/07 10:35:03;;;;;;;13.82;11.52;;;;;;;18.25;91.50;102027.75;6214612;23;20098;-79
2022/08/07 10:37:46;;;;;;;15.63;11.38;;;;;;;18.48;90.63;102068.03;6339609;22;20339;-79
2022/08/07 10:40:24;;;;;;;13.98;11.40;;;;;;;18.20;92.01;102038.44;6311720;22;20446;-79
2022/08/07 10:43:23;;;;;;;14.75;12.27;;;;;;;18.55;92.90;102085.19;6340026;22;20002;-79
2022/08/07 10:45:56;;;;;;;17.10;12.43;;;;;;;18.45;92.41;102052.94;6312455;22;20454;-79
2022/08/07 10:49:16;;;;;;;16.20;12.07;;;;;;;18.76;90.90;102054.81;6339299;22;19995;-79
2022/08/07 10:52:27;;;;;;;17.65;11.52;;;;;;;18.91;88.30;102070.84;6243991;23;20007;-79
2022/08/07 10:54:58;;;;;;;13.20;10.98;;;;;;;19.07;87.47;102066.69;6340077;22;20011;-80
2022/08/07 10:57:33;;;;;;;14.02;11.65;;;;;;;19.08;87.00;102041.09;6340628;22;20007;-78
2022/08/07 11:00:14;;;;;;;11.98;10.57;;;;;;;19.48;87.06;102063.31;6339755;22;20057;-79
2022/08/07 11:02:43;;;;;;;14.48;11.18;;;;;;;19.74;85.07;102060.56;6287683;22;20010;-79
2022/08/07 11:05:29;;;;;;;14.80;11.10;;;;;;;19.62;84.09;102065.91;6338500;22;20056;-79
2022/08/07 11:08:20;;;;;;;12.63;9.60;;;;;;;19.53;83.18;102064.53;6339867;22;20085;-78
2022/08/07 11:11:09;;;;;;;11.65;9.57;;;;;;;19.57;84.21;102063.00;6339627;22;20037;-78
2022/08/07 11:13:46;;;;;;;13.15;9.68;;;;;;;19.48;83.23;102057.03;6338463;22;20009;-78
2022/08/07 11:16:27;;;;;;;10.52;9.05;;;;;;;19.28;83.17;102061.88;6339859;22;20006;-77
2022/08/07 11:19:17;;;;;;;10.73;9.63;;;;;;;19.25;83.98;102066.72;6339636;22;20006;-77
2022/08/07 11:21:58;;;;;;;10.27;9.27;;;;;;;19.07;84.24;102044.03;6313329;22;20018;-77
2022/08/07 11:24:44;;;;;;;10.80;8.75;;;;;;;19.08;84.49;102065.66;6338900;22;20328;-77
2022/08/07 11:27:18;;;;;;;11.00;9.15;;;;;;;19.20;84.09;102063.88;6340362;22;20293;-77
2022/08/07 11:30:05;;;;;;;10.05;8.68;;;;;;;19.09;82.30;102059.13;6339528;22;20009;-77
2022/08/07 11:32:37;;;;;;;11.63;9.75;;;;;;;19.05;83.61;102063.38;6339819;22;20022;-78
2022/08/07 11:35:09;;;;;;;11.98;10.05;;;;;;;18.73;85.38;102025.28;6312644;22;20067;-77
2022/08/07 11:38:03;;;;;;;11.35;9.57;;;;;;;18.90;84.58;102057.44;6338426;22;20002;-79
2022/08/07 11:40:50;;;;;;;14.32;9.50;;;;;;;18.89;85.16;102047.59;6339235;22;20019;-79
2022/08/07 11:43:21;;;;;;;10.20;8.50;;;;;;;18.98;84.03;102046.25;6338014;22;20082;-79
2022/08/07 11:46:10;;;;;;;11.52;7.93;;;;;;;19.07;82.74;102063.97;6339228;22;20424;-79
2022/08/07 11:48:45;;;;;;;10.43;7.28;;;;;;;19.10;81.31;102051.78;6311249;22;20006;-80
2022/08/07 11:51:45;;;;;;;9.32;7.38;;;;;;;19.22;80.68;102053.53;6312368;22;20009;-80
2022/08/07 11:54:42;;;;;;;8.15;6.80;;;;;;;19.30;79.15;102054.28;6311773;22;20401;-79
2022/08/07 11:57:29;;;;;;;8.93;7.45;;;;;;;19.17;78.53;102064.31;6339490;22;20089;-79
2022/08/07 12:00:06;;;;;;;9.85;6.72;;;;;;;19.13;77.75;102038.50;6311793;22;20045;-80
2022/08/07 12:02:54;;;;;;;8.65;6.78;;;;;;;18.86;77.12;101999.78;6337427;22;20017;-80
2022/08/07 12:05:41;;;;;;;9.05;7.10;;;;;;;19.07;77.69;102030.41;6311378;22;20006;-80
2022/08/07 12:08:21;;;;;;;12.32;7.20;;;;;;;18.95;77.28;102013.97;6339111;22;20104;-80
2022/08/07 12:11:17;;;;;;;10.00;6.95;;;;;;;19.15;78.25;102046.50;6339450;22;20021;-77
2022/08/07 12:13:59;;;;;;;8.38;6.82;;;;;;;18.93;77.60;102029.69;6338892;22;20026;-80
2022/08/07 12:16:28;;;;;;;8.73;6.80;;;;;;;19.06;78.34;102051.41;6312021;22;20002;-80
2022/08/07 12:19:06;;;;;;;10.40;7.15;;;;;;;19.00;79.45;102052.28;6311328;22;20017;-78
2022/08/07 12:21:53;;;;;;;10.73;7.32;;;;;;;18.81;80.27;102045.13;6339645;22;20027;-78
2022/08/07 12:25:51;;;;;;;8.57;6.63;;;;;;;18.75;80.96;102046.88;6338732;22;20002;-78
2022/08/07 12:27:32;;;;;;;11.05;6.82;;;;;;;18.63;81.97;102044.00;6291421;22;20428;-78
2022/08/07 12:30:10;;;;;;;8.93;6.72;;;;;;;17.97;82.62;101962.75;6338981;22;19999;-78
2022/08/07 12:33:08;;;;;;;8.63;7.25;;;;;;;18.25;83.95;102025.03;6286261;22;20007;-77
2022/08/07 12:35:35;;;;;;;8.45;7.65;;;;;;;18.40;84.96;102035.59;6302274;22;19999;-78
2022/08/07 12:38:02;;;;;;;11.20;8.57;;;;;;;18.54;85.81;102039.88;6315763;22;20002;-78
2022/08/07 12:40:31;;;;;;;10.40;8.02;;;;;;;18.36;86.43;102001.66;6292779;22;20079;-78
2022/08/07 12:43:00;;;;;;;10.90;8.77;;;;;;;18.54;87.94;102029.81;6319425;22;20030;-78
2022/08/07 12:45:32;;;;;;;10.45;8.02;;;;;;;18.53;88.84;102032.75;6346010;22;20007;-78
2022/08/07 12:48:26;;;;;;;9.30;7.60;;;;;;;18.54;89.70;102046.19;6339472;22;20397;-78
2022/08/07 12:51:11;;;;;;;8.87;7.07;;;;;;;18.43;90.38;102035.16;6308858;22;20097;-78
2022/08/07 12:53:46;;;;;;;8.63;6.68;;;;;;;18.50;89.86;102042.22;6344118;22;20231;-79
2022/08/07 12:56:22;;;;;;;7.15;6.45;;;;;;;18.61;89.98;102054.31;6312022;22;20276;-77
2022/08/07 12:58:49;;;;;;;7.53;5.80;;;;;;;18.25;90.23;101995.88;6338968;22;20422;-79
2022/08/07 13:01:34;;;;;;;6.35;5.63;;;;;;;18.62;90.97;102044.22;6339580;22;20009;-79
2022/08/07 13:04:30;;;;;;;6.32;5.07;;;;;;;18.73;90.08;102049.81;6341194;22;20003;-80
2022/08/07 13:07:13;;;;;;;5.05;4.40;;;;;;;18.70;89.54;102030.31;6339991;22;20003;-78
2022/08/07 13:09:59;;;;;;;6.07;3.83;;;;;;;18.88;88.94;102043.19;6341222;22;20022;-77
2022/08/07 13:12:42;;;;;;;4.68;4.20;;;;;;;18.66;89.45;102032.66;6312068;22;20034;-78
2022/08/07 13:15:27;;;;;;;5.10;4.00;;;;;;;18.78;90.27;102060.06;6340902;22;19998;-78
2022/08/07 13:18:14;;;;;;;4.10;3.70;;;;;;;18.86;91.12;102056.22;6312288;22;20324;-78
2022/08/07 13:20:45;;;;;;;6.80;4.20;;;;;;;18.69;92.08;102021.28;6340845;22;20055;-78
2022/08/07 13:23:18;;;;;;;4.95;3.50;;;;;;;18.70;91.93;102055.69;6340315;22;20415;-78
2022/08/07 13:25:55;;;;;;;4.88;3.60;;;;;;;18.40;92.50;102033.69;6339979;22;20300;-78
2022/08/07 13:28:29;;;;;;;4.75;3.92;;;;;;;18.45;93.81;102041.22;6313184;22;20083;-78
2022/08/07 13:31:04;;;;;;;5.55;4.65;;;;;;;18.51;93.28;102013.91;6340014;22;20010;-78
2022/08/07 13:34:01;;;;;;;4.97;4.43;;;;;;;19.05;92.67;102047.00;6312897;22;20021;-78
2022/08/07 13:36:36;;;;;;;6.60;4.53;;;;;;;19.26;91.76;102032.09;6313337;22;20010;-78
2022/08/07 13:39:07;;;;;;;;;;;;;;;19.35;90.32;102033.47;6312224;22;20075;-78
2022/08/07 13:41:44;;;;;;;4.90;4.30;;;;;;;19.44;89.09;102037.56;6340212;22;19919;-77
2022/08/07 13:44:11;;;;;;;4.95;3.83;;;;;;;19.34;87.81;102014.59;6339591;22;20006;-78
2022/08/07 13:46:46;;;;;;;5.78;4.57;;;;;;;19.24;87.88;102009.66;6340393;22;20372;-78
2022/08/07 13:49:15;;;;;;;4.68;4.15;;;;;;;19.60;87.21;102035.25;6313270;22;20013;-78
2022/08/07 13:51:45;;;;;;;4.93;4.40;;;;;;;19.44;86.01;102021.19;6313081;22;20014;-78
2022/08/07 13:54:12;;;;;;;6.82;4.80;;;;;;;19.40;86.22;102036.34;6340343;22;20074;-78
2022/08/07 13:56:40;;;;;;;8.07;5.25;;;;;;;19.40;85.76;102036.34;6312619;22;20007;-78
2022/08/07 13:59:32;;;;;;;5.82;5.15;;;;;;;19.78;86.09;102028.97;6310489;22;20007;-78
2022/08/07 14:02:08;;;;;;;5.05;4.55;;;;;;;19.99;84.87;102031.19;6334470;22;20006;-78
2022/08/07 14:04:47;;;;;;;8.02;5.10;;;;;;;19.79;84.69;102006.06;6311353;22;20014;-78
2022/08/07 14:07:14;;;;;;;7.30;5.10;;;;;;;20.01;85.80;102023.59;6340442;22;20027;-78
2022/08/07 14:09:41;;;;;;;6.30;5.15;;;;;;;20.04;85.19;102022.31;6338862;22;20009;-77
2022/08/07 14:12:21;;;;;;;9.73;5.55;;;;;;;19.87;85.69;101992.09;6313370;22;20029;-78
2022/08/07 14:15:09;;;;;;;7.20;5.80;;;;;;;19.88;86.28;102001.94;6339486;22;20432;-78
2022/08/07 14:17:39;;;;;;;6.20;5.40;;;;;;;19.70;86.34;101995.47;6307403;22;20011;-78
2022/08/07 14:20:17;;;;;;;9.32;5.22;;;;;;;19.84;86.84;102017.13;6340045;22;19998;-78
2022/08/07 14:22:51;;;;;;;7.28;5.47;;;;;;;19.68;86.53;101989.38;6338457;22;20051;-78
2022/08/07 14:25:23;;;;;;;8.00;5.40;;;;;;;19.90;86.41;102005.25;6312312;22;20411;-78
2022/08/07 14:27:51;;;;;;;5.45;4.70;;;;;;;19.80;85.73;101961.28;6339495;22;20073;-78
2022/08/07 14:30:17;;;;;;;6.55;5.35;;;;;;;20.09;85.80;102022.44;6311622;22;20317;-78
2022/08/07 14:32:46;;;;;;;6.13;5.10;;;;;;;20.11;85.42;102010.19;6340105;22;20017;-78
2022/08/07 14:35:32;;;;;;;6.45;5.03;;;;;;;20.16;84.55;102012.22;6312099;22;20002;-78
2022/08/07 14:37:58;;;;;;;8.45;5.07;;;;;;;20.28;85.19;102015.00;6340841;22;20011;-78
2022/08/07 14:40:28;;;;;;;6.43;5.38;;;;;;;20.29;84.87;102014.75;6286231;22;20026;-77
2022/08/07 14:43:05;;;;;;;6.65;5.22;;;;;;;20.32;84.94;102013.47;6313754;22;20404;-78
2022/08/07 14:45:38;;;;;;;6.28;4.78;;;;;;;20.35;85.08;102004.78;6338417;22;19999;-78
2022/08/07 14:48:06;;;;;;;5.32;4.82;;;;;;;20.44;82.96;102014.31;6313434;22;20038;-78
2022/08/07 14:50:33;;;;;;;5.60;4.50;;;;;;;20.15;82.12;102005.94;6338485;22;19999;-78
2022/08/07 14:53:01;;;;;;;5.20;4.40;;;;;;;20.16;82.23;102020.44;6340238;22;20014;-78
2022/08/07 14:55:32;;;;;;;7.10;5.00;;;;;;;20.34;81.68;102014.06;6338736;22;20025;-78
2022/08/07 14:57:59;;;;;;;6.72;4.55;;;;;;;20.39;81.35;102015.00;6339895;22;19998;-78
2022/08/07 15:00:30;;;;;;;6.55;4.80;;;;;;;20.48;81.67;102012.78;6286721;22;20277;-78
2022/08/07 15:02:58;;;;;;;7.07;5.13;;;;;;;20.40;80.87;101972.13;6339181;22;19999;-77
2022/08/07 15:05:26;;;;;;;6.28;4.95;;;;;;;20.69;81.61;102011.38;6340832;22;20102;-78
2022/08/07 15:07:54;;;;;;;7.15;4.95;;;;;;;20.67;79.44;101988.09;6288033;22;20015;-77
2022/08/07 15:10:21;;;;;;;5.50;4.90;;;;;;;20.65;78.67;102004.72;6340155;22;20064;-78
2022/08/07 15:12:51;;;;;;;5.57;4.20;;;;;;;20.47;76.73;101985.69;6312696;22;19998;-78
2022/08/07 15:15:24;;;;;;;5.57;4.22;;;;;;;20.45;76.24;101996.84;6311927;22;20405;-79
2022/08/07 15:17:58;;;;;;;6.05;4.30;;;;;;;20.56;76.46;101997.94;6311394;22;19999;-79
2022/08/07 15:20:29;;;;;;;5.80;4.43;;;;;;;20.50;76.57;101998.88;6338372;22;20010;-79
2022/08/07 15:22:58;;;;;;;6.10;4.32;;;;;;;20.31;77.04;101998.13;6339182;22;20006;-79
2022/08/07 15:25:30;;;;;;;6.03;4.45;;;;;;;20.14;78.39;101982.41;6312125;22;20447;-80
2022/08/07 15:28:00;;;;;;;6.68;4.90;;;;;;;20.15;78.02;101991.44;6339754;22;20010;-79
2022/08/07 15:30:27;;;;;;;6.25;4.85;;;;;;;19.85;79.25;101984.09;6310795;22;20013;-79
2022/08/07 15:32:53;;;;;;;5.95;4.90;;;;;;;19.89;80.89;101992.66;6286662;22;20424;-79
2022/08/07 15:35:21;;;;;;;5.70;5.10;;;;;;;19.86;81.40;101980.31;6338912;22;20005;-79
2022/08/07 15:37:52;;;;;;;8.25;5.97;;;;;;;19.79;82.11;101990.50;6338845;22;20063;-80
2022/08/07 15:40:19;;;;;;;7.60;4.60;;;;;;;19.67;81.84;101993.19;6311626;22;20050;-79
2022/08/07 15:42:46;;;;;;;6.20;5.05;;;;;;;19.58;81.96;101991.81;6311782;22;20049;-79
2022/08/07 15:45:24;;;;;;;5.55;4.70;;;;;;;19.35;82.61;101978.03;6312901;22;20395;-79
2022/08/07 15:48:06;;;;;;;6.97;5.50;;;;;;;19.31;83.72;101985.84;6346554;22;20013;-80
2022/08/07 15:50:37;;;;;;;6.00;4.65;;;;;;;19.40;84.34;101989.94;6348551;22;19993;-80
2022/08/07 15:53:11;;;;;;;5.75;4.90;;;;;;;19.28;84.30;101964.47;6341995;22;20026;-80
2022/08/07 15:55:42;;;;;;;6.35;5.10;;;;;;;19.42;83.48;101997.88;6312639;22;20007;-79
2022/08/07 15:58:10;;;;;;;8.32;5.30;;;;;;;19.37;84.73;101989.53;6339083;22;20076;-79
2022/08/07 16:00:38;;;;;;;7.75;5.60;;;;;;;19.38;85.01;101981.13;6285570;22;20011;-79
2022/08/07 16:03:24;;;;;;;8.13;5.65;;;;;;;19.26;85.29;101961.13;6339937;22;20012;-79
2022/08/07 16:05:52;;;;;;;6.97;5.32;;;;;;;19.31;85.51;101965.91;6310370;22;19994;-79
2022/08/07 16:08:23;;;;;;;6.65;5.80;;;;;;;19.19;85.73;101957.66;6339794;22;20014;-79
2022/08/07 16:10:56;;;;;;;9.32;5.63;;;;;;;19.30;86.58;101986.91;6339278;22;20011;-79
2022/08/07 16:13:21;;;;;;;7.93;6.00;;;;;;;19.37;86.49;101981.34;6312095;22;20038;-79
2022/08/07 16:16:16;;;;;;;8.15;6.53;;;;;;;19.30;87.30;101980.59;6312270;22;20007;-79
2022/08/07 16:19:19;;;;;;;8.18;6.30;;;;;;;19.34;87.66;101985.41;6323044;22;20010;-79
2022/08/07 16:22:10;;;;;;;6.57;5.88;;;;;;;19.35;87.28;101976.13;6311955;22;19994;-80
2022/08/07 16:25:16;;;;;;;8.23;6.05;;;;;;;19.31;88.44;101976.84;6339333;22;19998;-79
2022/08/07 16:28:17;;;;;;;7.30;6.05;;;;;;;19.14;88.54;101938.41;6321215;22;20014;-79
2022/08/07 16:30:55;;;;;;;6.75;5.35;;;;;;;18.92;87.71;101913.50;6315671;22;20400;-79
2022/08/07 16:33:26;;;;;;;6.10;5.50;;;;;;;19.16;88.05;101969.84;6339929;22;20010;-79
2022/08/07 16:36:42;;;;;;;7.60;6.15;;;;;;;19.09;88.48;101982.75;6313041;22;20079;-79
2022/08/07 16:39:31;;;;;;;5.90;4.82;;;;;;;19.19;87.88;101966.66;6288245;22;20437;-80
2022/08/07 16:42:33;;;;;;;5.18;3.83;;;;;;;19.40;87.77;101970.84;6340839;22;20019;-79
2022/08/07 16:45:33;;;;;;;4.72;3.55;;;;;;;19.53;88.28;101969.81;6314275;22;20073;-79
2022/08/07 16:48:16;;;;;;;5.28;3.50;;;;;;;19.65;87.82;101962.53;6341820;22;20034;-79
2022/08/07 16:50:54;;;;;;;5.47;3.20;;;;;;;19.65;87.33;101967.19;6313490;22;20014;-79
2022/08/07 16:53:40;;;;;;;7.15;3.03;;;;;;;19.63;86.82;101969.25;6314197;22;20060;-79
2022/08/07 16:56:17;;;;;;;3.17;2.60;;;;;;;19.44;86.90;101954.84;6313282;22;20007;-79
2022/08/07 16:59:06;;;;;;;3.90;2.38;;;;;;;19.38;87.13;101970.22;6340547;22;20002;-79
2022/08/07 17:01:48;;;;;;;5.72;2.92;;;;;;;19.33;87.76;101969.25;6341013;22;20025;-79
2022/08/07 17:04:50;;;;;;;3.50;2.45;;;;;;;19.34;87.93;101969.03;6341246;22;19998;-79
2022/08/07 17:07:45;;;;;;;4.40;2.35;;;;;;;19.37;87.74;101959.53;6340929;22;20003;-79
2022/08/07 17:10:25;;;;;;;2.40;2.20;;;;;;;19.13;87.96;101937.56;6324017;22;20006;-79
2022/08/07 17:13:03;;;;;;;5.90;2.85;;;;;;;19.30;88.53;101966.97;6331515;22;20082;-79
2022/08/07 17:15:28;;;;;;;2.63;2.30;;;;;;;19.24;88.91;101964.09;6313939;22;20010;-79
2022/08/07 17:18:14;;;;;;;3.13;2.42;;;;;;;18.95;88.67;101932.97;6340210;22;20003;-79
2022/08/07 17:20:40;;;;;;;4.38;2.50;;;;;;;19.04;88.65;101954.47;6313157;22;20010;-79
2022/08/07 17:23:24;;;;;;;5.10;2.53;;;;;;;19.12;89.33;101965.09;6313239;22;20006;-80
2022/08/07 17:25:59;;;;;;;4.07;2.20;;;;;;;19.09;89.07;101960.91;6312810;22;20026;-80
2022/08/07 17:29:00;;;;;;;6.18;2.88;;;;;;;18.60;89.44;101908.13;6314280;22;20027;-79
2022/08/07 17:32:16;;;;;;;3.08;2.78;;;;;;;18.72;90.60;101941.81;6313084;22;20014;-79
2022/08/07 17:34:49;;;;;;;3.60;2.45;;;;;;;18.63;91.79;101931.41;6287093;22;20167;-79
2022/08/07 17:37:45;;;;;;;4.78;2.42;;;;;;;18.80;92.15;101964.38;6340613;22;19998;-79
2022/08/07 17:40:17;;;;;;;;;;;;;;;18.67;92.54;101966.16;6259738;22;20029;-79
2022/08/07 17:43:17;;;;;;;3.85;2.40;;;;;;;18.60;93.04;101964.56;6341145;22;19907;-80
2022/08/07 17:45:54;;;;;;;5.05;2.80;;;;;;;18.30;93.79;101938.81;6318427;22;20425;-79
2022/08/07 17:48:24;;;;;;;3.20;2.25;;;;;;;18.33;94.75;101963.97;6314376;22;20017;-79
2022/08/07 17:51:04;;;;;;;7.28;2.60;;;;;;;18.07;95.22;101966.66;6314579;22;20003;-79
2022/08/07 17:53:53;;;;;;;5.38;2.20;;;;;;;17.91;96.14;101977.25;6313600;22;20059;-79
2022/08/07 17:56:38;;;;;;;5.20;1.80;;;;;;;17.60;97.74;101949.75;6340692;22;20057;-79
2022/08/07 17:59:13;;;;;;;4.60;1.70;;;;;;;17.54;99.50;101964.22;6312772;22;20026;-79
2022/08/07 18:02:02;;;;;;;4.80;1.80;;;;;;;17.30;100.00;101930.44;6341617;22;20013;-79
2022/08/07 18:04:31;;;;;;;5.97;1.92;;;;;;;17.44;100.00;101958.41;6339750;22;20111;-79
2022/08/07 18:07:04;;;;;;;5.80;1.65;;;;;;;16.83;100.00;101864.53;6313715;22;20293;-80
2022/08/07 18:09:32;;;;;;;5.00;1.67;;;;;;;17.35;100.00;101966.00;6339923;22;20095;-79
2022/08/07 18:12:01;;;;;;;4.05;1.48;;;;;;;17.32;100.00;101965.63;6341602;22;20313;-79
2022/08/07 18:14:38;;;;;;;4.47;1.52;;;;;;;17.11;100.00;101920.47;6320197;22;20013;-79
2022/08/07 18:17:30;;;;;;;6.80;1.60;;;;;;;17.22;100.00;101944.31;6340591;22;20007;-79
2022/08/07 18:20:04;;;;;;;6.32;1.70;;;;;;;17.30;100.00;101967.69;6312468;22;20552;-79
2022/08/07 18:22:47;;;;;;;6.05;1.38;;;;;;;16.94;100.00;101917.41;6340548;22;19995;-79
2022/08/07 18:25:21;;;;;;;11.50;1.42;;;;;;;16.85;100.00;101907.81;6338926;22;20002;-79
2022/08/07 18:28:05;;;;;;;4.70;1.38;;;;;;;16.87;100.00;101925.59;6313731;22;20003;-80
2022/08/07 18:30:54;;;;;;;2.53;1.10;;;;;;;17.04;100.00;101955.84;6340085;22;20009;-79
2022/08/07 18:33:58;;;;;;;4.63;1.10;;;;;;;17.07;100.00;101970.91;6340846;22;20037;-79
2022/08/07 18:36:51;;;;;;;5.35;1.33;;;;;;;17.03;100.00;101958.81;6338617;22;20014;-79
2022/08/07 18:39:26;;;;;;;4.70;1.20;;;;;;;17.07;100.00;101976.34;6340792;22;20045;-79
2022/08/07 18:42:27;;;;;;;5.30;1.10;;;;;;;17.01;100.00;101977.22;6340275;22;20026;-79
2022/08/07 18:45:11;;;;;;;3.38;1.10;;;;;;;16.91;100.00;101962.16;6301894;22;20115;-79
2022/08/07 18:48:09;;;;;;;3.88;1.17;;;;;;;16.97;100.00;101974.06;6323633;22;20002;-80
2022/08/07 18:50:52;;;;;;;4.60;1.20;;;;;;;16.97;100.00;101975.97;6316451;22;20389;-79
2022/08/07 18:53:50;;;;;;;4.88;1.55;;;;;;;16.92;100.00;101976.63;6313298;22;20029;-79
2022/08/07 18:56:57;;;;;;;6.95;1.38;;;;;;;16.90;100.00;101976.81;6338417;22;20033;-79
2022/08/07 19:00:01;;;;;;;3.85;1.10;;;;;;;16.87;100.00;101979.13;6213916;23;20016;-79
2022/08/07 19:02:57;;;;;;;3.88;0.98;;;;;;;16.84;100.00;101983.09;6339963;22;20014;-79
2022/08/07 19:05:32;;;;;;;4.65;1.30;;;;;;;16.87;100.00;101971.81;6340139;22;20002;-79
2022/08/07 19:08:26;;;;;;;6.63;1.25;;;;;;;16.87;100.00;101979.13;6312799;22;20136;-79
2022/08/07 19:11:00;;;;;;;5.53;1.37;;;;;;;16.79;100.00;101969.31;6287147;22;20071;-79
2022/08/07 19:13:36;;;;;;;3.75;1.17;;;;;;;16.87;100.00;101985.41;6341311;22;20654;-79
2022/08/07 19:16:07;;;;;;;3.42;1.25;;;;;;;16.76;100.00;101963.47;6341014;22;19995;-79
2022/08/07 19:18:32;;;;;;;4.35;1.45;;;;;;;16.85;100.00;101987.50;6312791;22;20026;-80
2022/08/07 19:21:02;;;;;;;4.97;1.20;;;;;;;16.85;100.00;101984.78;6340238;22;20018;-80
2022/08/07 19:23:38;;;;;;;4.93;1.23;;;;;;;16.81;100.00;101988.94;6339826;22;20011;-79
2022/08/07 19:26:09;;;;;;;5.45;1.50;;;;;;;16.79;100.00;101990.25;6338841;22;20377;-79
2022/08/07 19:28:41;;;;;;;3.22;1.30;;;;;;;16.66;100.00;101983.72;6313068;22;20007;-79
2022/08/07 19:31:10;;;;;;;3.83;1.13;;;;;;;16.58;100.00;101972.22;6339746;22;20092;-79
2022/08/07 19:33:39;;;;;;;4.57;1.30;;;;;;;16.71;100.00;101996.69;6338151;22;20002;-79
2022/08/07 19:36:09;;;;;;;4.18;1.35;;;;;;;16.61;100.00;101991.66;6340220;22;19998;-79
2022/08/07 19:38:40;;;;;;;5.00;1.25;;;;;;;16.40;100.00;101962.84;6338355;22;20301;-79
2022/08/07 19:41:06;;;;;;;5.25;1.13;;;;;;;16.62;100.00;102000.66;6340331;22;20029;-79
2022/08/07 19:43:32;;;;;;;4.05;0.90;;;;;;;16.34;100.00;101952.81;6339185;22;20018;-79
2022/08/07 19:46:01;;;;;;;4.93;1.25;;;;;;;16.61;100.00;102007.13;6312872;22;20003;-78
2022/08/07 19:48:51;;;;;;;6.25;1.40;;;;;;;16.41;100.00;101971.81;6344923;22;20003;-79
2022/08/07 19:51:17;;;;;;;3.40;1.13;;;;;;;16.58;100.00;102002.94;6345049;22;20348;-80
2022/08/07 19:53:56;;;;;;;5.50;1.15;;;;;;;16.43;100.00;101986.88;6315424;22;20013;-79
2022/08/07 19:56:26;;;;;;;5.38;1.45;;;;;;;16.31;100.00;101969.53;6314478;22;20009;-79
2022/08/07 19:58:52;;;;;;;3.25;1.00;;;;;;;16.56;100.00;102002.34;6313030;22;19999;-79
2022/08/07 20:01:19;;;;;;;3.95;1.20;;;;;;;16.38;100.00;101980.38;6340471;22;20405;-79
2022/08/07 20:03:47;;;;;;;3.05;1.20;;;;;;;16.53;100.00;102004.66;6313371;22;20011;-79
2022/08/07 20:06:14;;;;;;;5.60;1.30;;;;;;;16.32;100.00;101967.63;6340272;22;20010;-79
2022/08/07 20:08:42;;;;;;;5.30;1.20;;;;;;;16.22;100.00;101951.75;6341613;22;20345;-79
2022/08/07 20:11:12;;;;;;;4.25;1.00;;;;;;;16.44;100.00;101999.41;6317111;22;20007;-80
2022/08/07 20:14:04;;;;;;;2.15;1.00;;;;;;;16.52;100.00;102003.78;6340010;22;20089;-79
2022/08/07 20:16:32;;;;;;;4.35;1.35;;;;;;;16.52;100.00;102016.53;6319820;22;20375;-79
2022/08/07 20:18:58;;;;;;;4.05;1.10;;;;;;;16.52;100.00;102008.38;6319594;22;20006;-79
2022/08/07 20:21:25;;;;;;;3.92;1.20;;;;;;;16.53;100.00;102007.38;6343071;22;20075;-79
2022/08/07 20:23:55;;;;;;;2.85;1.05;;;;;;;16.53;100.00;102012.78;6312716;22;20010;-79
2022/08/07 20:26:26;;;;;;;4.97;1.10;;;;;;;16.53;100.00;102007.38;6311472;22;19999;-79
2022/08/07 20:28:53;;;;;;;3.17;1.10;;;;;;;16.18;100.00;101953.22;6339101;22;20034;-79
2022/08/07 20:31:20;;;;;;;5.63;1.08;;;;;;;16.49;100.00;102004.22;6339042;22;20035;-79
2022/08/07 20:33:49;;;;;;;4.55;1.20;;;;;;;16.42;100.00;101993.38;6311322;22;20313;-79
2022/08/07 20:36:18;;;;;;;2.40;0.98;;;;;;;16.44;100.00;101998.56;6339311;22;19999;-79
2022/08/07 20:38:53;;;;;;;3.40;1.38;;;;;;;16.52;100.00;102014.66;6338583;22;20102;-79
2022/08/07 20:41:22;;;;;;;2.95;1.02;;;;;;;16.43;100.00;101995.03;6311080;22;20023;-79
2022/08/07 20:43:51;;;;;;;3.30;1.00;;;;;;;16.40;100.00;101995.44;6312368;22;20460;-79
2022/08/07 20:46:17;;;;;;;2.92;1.13;;;;;;;16.49;100.00;102011.53;6338019;22;20309;-79
2022/08/07 20:48:47;;;;;;;3.40;1.10;;;;;;;16.49;100.00;102014.22;6339800;22;20011;-80
2022/08/07 20:51:13;;;;;;;3.30;1.15;;;;;;;16.44;100.00;102009.44;6314521;22;20030;-79
2022/08/07 20:53:42;;;;;;;2.90;1.27;;;;;;;16.49;100.00;102014.22;6313986;22;20033;-79